sensor_id;sensor_type;location;lat;lon;timestamp;P1;durP1;ratioP1;P2;durP2;ratioP2
6983;SDS011;3532;51.118;7.210;2024-01-10T00:00:30;7.23;;;6.17;;
6983;SDS011;3532;51.118;7.210;2024-01-10T00:02:55;6.53;;;5.27;;
6983;SDS011;3532;51.118;7.210;2024-01-10T00:05:20;7.03;;;5.43;;
6983;SDS011;3532;51.118;7.210;2024-01-10T00:07:46;6.10;;;5.50;;
6983;SDS011;3532;51.118;7.210;2024-01-10T00:10:11;6.67;;;5.87;;
6983;SDS011;3532;51.118;7.210;2024-01-10T00:12:36;8.40;;;7.07;;
6983;SDS011;3532;51.118;7.210;2024-01-10T00:15:05;8.83;;;6.10;;
6983;SDS011;3532;51.118;7.210;2024-01-10T00:17:31;7.40;;;6.22;;
6983;SDS011;3532;51.118;7.210;2024-01-10T00:19:56;7.70;;;6.13;;
6983;SDS011;3532;51.118;7.210;2024-01-10T00:22:21;11.33;;;6.43;;
6983;SDS011;3532;51.118;7.210;2024-01-10T00:24:47;9.33;;;6.00;;
6983;SDS011;3532;51.118;7.210;2024-01-10T00:27:12;9.50;;;6.13;;
6983;SDS011;3532;51.118;7.210;2024-01-10T00:29:37;10.57;;;6.00;;
6983;SDS011;3532;51.118;7.210;2024-01-10T00:32:04;10.35;;;6.90;;
6983;SDS011;3532;51.118;7.210;2024-01-10T00:34:30;9.73;;;5.90;;
6983;SDS011;3532;51.118;7.210;2024-01-10T00:36:55;6.23;;;5.50;;
6983;SDS011;3532;51.118;7.210;2024-01-10T00:39:20;7.93;;;5.37;;
6983;SDS011;3532;51.118;7.210;2024-01-10T00:41:46;7.37;;;6.03;;
6983;SDS011;3532;51.118;7.210;2024-01-10T00:44:11;8.53;;;6.10;;
6983;SDS011;3532;51.118;7.210;2024-01-10T00:46:36;9.20;;;5.97;;
6983;SDS011;3532;51.118;7.210;2024-01-10T00:49:02;9.37;;;6.20;;
6983;SDS011;3532;51.118;7.210;2024-01-10T00:51:27;7.23;;;5.93;;
6983;SDS011;3532;51.118;7.210;2024-01-10T00:53:52;8.20;;;6.90;;
6983;SDS011;3532;51.118;7.210;2024-01-10T00:56:18;7.50;;;5.97;;
6983;SDS011;3532;51.118;7.210;2024-01-10T00:58:43;7.37;;;5.83;;
6983;SDS011;3532;51.118;7.210;2024-01-10T01:01:08;5.97;;;5.40;;
6983;SDS011;3532;51.118;7.210;2024-01-10T01:03:34;8.73;;;5.77;;
6983;SDS011;3532;51.118;7.210;2024-01-10T01:05:59;6.23;;;5.50;;
6983;SDS011;3532;51.118;7.210;2024-01-10T01:08:24;10.30;;;6.73;;
6983;SDS011;3532;51.118;7.210;2024-01-10T01:10:50;6.03;;;5.23;;
6983;SDS011;3532;51.118;7.210;2024-01-10T01:13:15;8.03;;;6.23;;
6983;SDS011;3532;51.118;7.210;2024-01-10T01:15:40;6.90;;;6.07;;
6983;SDS011;3532;51.118;7.210;2024-01-10T01:18:05;8.13;;;6.20;;
6983;SDS011;3532;51.118;7.210;2024-01-10T01:20:32;5.67;;;4.77;;
6983;SDS011;3532;51.118;7.210;2024-01-10T01:22:58;7.13;;;5.22;;
6983;SDS011;3532;51.118;7.210;2024-01-10T01:25:24;7.00;;;5.77;;
6983;SDS011;3532;51.118;7.210;2024-01-10T01:27:49;7.97;;;5.20;;
6983;SDS011;3532;51.118;7.210;2024-01-10T01:30:15;8.07;;;4.87;;
6983;SDS011;3532;51.118;7.210;2024-01-10T01:32:40;5.27;;;4.77;;
6983;SDS011;3532;51.118;7.210;2024-01-10T01:35:05;6.73;;;5.63;;
6983;SDS011;3532;51.118;7.210;2024-01-10T01:37:31;6.63;;;5.40;;
6983;SDS011;3532;51.118;7.210;2024-01-10T01:39:56;7.20;;;5.33;;
6983;SDS011;3532;51.118;7.210;2024-01-10T01:42:22;7.13;;;5.97;;
6983;SDS011;3532;51.118;7.210;2024-01-10T01:44:47;6.53;;;4.67;;
6983;SDS011;3532;51.118;7.210;2024-01-10T01:47:12;5.17;;;4.67;;
6983;SDS011;3532;51.118;7.210;2024-01-10T01:49:38;8.40;;;5.70;;
6983;SDS011;3532;51.118;7.210;2024-01-10T01:52:03;6.70;;;4.57;;
6983;SDS011;3532;51.118;7.210;2024-01-10T01:54:29;7.85;;;5.53;;
6983;SDS011;3532;51.118;7.210;2024-01-10T01:56:56;5.63;;;5.03;;
6983;SDS011;3532;51.118;7.210;2024-01-10T01:59:22;6.43;;;4.82;;
6983;SDS011;3532;51.118;7.210;2024-01-10T02:01:47;5.50;;;4.80;;
6983;SDS011;3532;51.118;7.210;2024-01-10T02:04:13;7.07;;;5.83;;
6983;SDS011;3532;51.118;7.210;2024-01-10T02:06:38;9.37;;;4.93;;
6983;SDS011;3532;51.118;7.210;2024-01-10T02:09:03;6.03;;;4.97;;
6983;SDS011;3532;51.118;7.210;2024-01-10T02:11:29;7.70;;;5.40;;
6983;SDS011;3532;51.118;7.210;2024-01-10T02:13:54;6.03;;;5.07;;
6983;SDS011;3532;51.118;7.210;2024-01-10T02:16:20;5.80;;;5.13;;
6983;SDS011;3532;51.118;7.210;2024-01-10T02:18:46;9.63;;;4.38;;
6983;SDS011;3532;51.118;7.210;2024-01-10T02:21:11;7.17;;;5.13;;
6983;SDS011;3532;51.118;7.210;2024-01-10T02:23:37;6.43;;;5.50;;
6983;SDS011;3532;51.118;7.210;2024-01-10T02:26:02;5.10;;;4.60;;
6983;SDS011;3532;51.118;7.210;2024-01-10T02:28:27;5.93;;;5.37;;
6983;SDS011;3532;51.118;7.210;2024-01-10T02:30:53;5.70;;;5.10;;
6983;SDS011;3532;51.118;7.210;2024-01-10T02:33:19;6.50;;;5.07;;
6983;SDS011;3532;51.118;7.210;2024-01-10T02:35:44;6.40;;;5.80;;
6983;SDS011;3532;51.118;7.210;2024-01-10T02:38:10;7.37;;;5.93;;
6983;SDS011;3532;51.118;7.210;2024-01-10T02:40:35;5.83;;;5.07;;
6983;SDS011;3532;51.118;7.210;2024-01-10T02:43:00;7.77;;;5.10;;
6983;SDS011;3532;51.118;7.210;2024-01-10T02:45:26;8.93;;;4.90;;
6983;SDS011;3532;51.118;7.210;2024-01-10T02:47:51;6.63;;;5.10;;
6983;SDS011;3532;51.118;7.210;2024-01-10T02:50:16;8.17;;;5.73;;
6983;SDS011;3532;51.118;7.210;2024-01-10T02:52:42;8.10;;;6.03;;
6983;SDS011;3532;51.118;7.210;2024-01-10T02:55:07;6.80;;;5.00;;
6983;SDS011;3532;51.118;7.210;2024-01-10T02:57:32;6.13;;;5.03;;
6983;SDS011;3532;51.118;7.210;2024-01-10T02:59:58;6.83;;;5.60;;
6983;SDS011;3532;51.118;7.210;2024-01-10T03:02:23;7.83;;;4.53;;
6983;SDS011;3532;51.118;7.210;2024-01-10T03:04:48;4.97;;;4.47;;
6983;SDS011;3532;51.118;7.210;2024-01-10T03:07:14;5.20;;;4.60;;
6983;SDS011;3532;51.118;7.210;2024-01-10T03:09:39;5.40;;;4.63;;
6983;SDS011;3532;51.118;7.210;2024-01-10T03:12:05;6.37;;;5.60;;
6983;SDS011;3532;51.118;7.210;2024-01-10T03:14:30;6.17;;;5.40;;
6983;SDS011;3532;51.118;7.210;2024-01-10T03:16:55;5.37;;;4.87;;
6983;SDS011;3532;51.118;7.210;2024-01-10T03:19:21;6.60;;;5.80;;
6983;SDS011;3532;51.118;7.210;2024-01-10T03:21:46;5.83;;;5.20;;
6983;SDS011;3532;51.118;7.210;2024-01-10T03:24:11;5.77;;;5.03;;
6983;SDS011;3532;51.118;7.210;2024-01-10T03:26:37;7.33;;;5.90;;
6983;SDS011;3532;51.118;7.210;2024-01-10T03:29:02;5.30;;;4.67;;
6983;SDS011;3532;51.118;7.210;2024-01-10T03:31:28;6.70;;;5.23;;
6983;SDS011;3532;51.118;7.210;2024-01-10T03:33:55;5.78;;;5.18;;
6983;SDS011;3532;51.118;7.210;2024-01-10T03:36:20;6.13;;;5.40;;
6983;SDS011;3532;51.118;7.210;2024-01-10T03:38:45;6.83;;;4.97;;
6983;SDS011;3532;51.118;7.210;2024-01-10T03:41:18;5.20;;;4.70;;
6983;SDS011;3532;51.118;7.210;2024-01-10T03:43:44;5.47;;;4.85;;
6983;SDS011;3532;51.118;7.210;2024-01-10T03:46:10;6.40;;;5.80;;
6983;SDS011;3532;51.118;7.210;2024-01-10T03:48:35;7.10;;;5.30;;
6983;SDS011;3532;51.118;7.210;2024-01-10T03:51:02;7.18;;;5.75;;
6983;SDS011;3532;51.118;7.210;2024-01-10T03:53:27;6.30;;;5.67;;
6983;SDS011;3532;51.118;7.210;2024-01-10T03:55:53;6.00;;;5.40;;
6983;SDS011;3532;51.118;7.210;2024-01-10T03:58:18;6.43;;;5.20;;
6983;SDS011;3532;51.118;7.210;2024-01-10T04:00:43;6.13;;;5.53;;
6983;SDS011;3532;51.118;7.210;2024-01-10T04:03:09;6.73;;;5.17;;
6983;SDS011;3532;51.118;7.210;2024-01-10T04:05:34;5.60;;;5.00;;
6983;SDS011;3532;51.118;7.210;2024-01-10T04:07:59;6.43;;;5.03;;
6983;SDS011;3532;51.118;7.210;2024-01-10T04:10:25;6.33;;;5.73;;
6983;SDS011;3532;51.118;7.210;2024-01-10T04:12:50;6.07;;;5.47;;
6983;SDS011;3532;51.118;7.210;2024-01-10T04:15:16;6.97;;;6.13;;
6983;SDS011;3532;51.118;7.210;2024-01-10T04:17:42;5.88;;;4.82;;
6983;SDS011;3532;51.118;7.210;2024-01-10T04:20:08;7.73;;;5.50;;
6983;SDS011;3532;51.118;7.210;2024-01-10T04:22:34;8.27;;;5.68;;
6983;SDS011;3532;51.118;7.210;2024-01-10T04:25:00;6.60;;;5.43;;
6983;SDS011;3532;51.118;7.210;2024-01-10T04:27:28;5.82;;;4.97;;
6983;SDS011;3532;51.118;7.210;2024-01-10T04:29:54;9.00;;;6.07;;
6983;SDS011;3532;51.118;7.210;2024-01-10T04:32:19;8.67;;;5.83;;
6983;SDS011;3532;51.118;7.210;2024-01-10T04:34:45;6.23;;;5.63;;
6983;SDS011;3532;51.118;7.210;2024-01-10T04:37:10;5.70;;;5.13;;
6983;SDS011;3532;51.118;7.210;2024-01-10T04:39:35;5.50;;;5.00;;
6983;SDS011;3532;51.118;7.210;2024-01-10T04:42:02;6.55;;;5.88;;
6983;SDS011;3532;51.118;7.210;2024-01-10T04:44:28;6.13;;;5.03;;
6983;SDS011;3532;51.118;7.210;2024-01-10T04:46:54;5.73;;;4.73;;
6983;SDS011;3532;51.118;7.210;2024-01-10T04:49:19;6.73;;;5.50;;
6983;SDS011;3532;51.118;7.210;2024-01-10T04:51:44;7.30;;;5.97;;
6983;SDS011;3532;51.118;7.210;2024-01-10T04:54:11;6.47;;;5.00;;
6983;SDS011;3532;51.118;7.210;2024-01-10T04:56:36;7.07;;;5.13;;
6983;SDS011;3532;51.118;7.210;2024-01-10T04:59:02;6.03;;;5.37;;
6983;SDS011;3532;51.118;7.210;2024-01-10T05:01:28;5.87;;;5.17;;
6983;SDS011;3532;51.118;7.210;2024-01-10T05:03:53;7.13;;;4.90;;
6983;SDS011;3532;51.118;7.210;2024-01-10T05:06:18;5.10;;;4.00;;
6983;SDS011;3532;51.118;7.210;2024-01-10T05:08:44;7.07;;;5.77;;
6983;SDS011;3532;51.118;7.210;2024-01-10T05:11:09;7.70;;;5.10;;
6983;SDS011;3532;51.118;7.210;2024-01-10T05:13:34;5.40;;;4.70;;
6983;SDS011;3532;51.118;7.210;2024-01-10T05:16:00;5.43;;;4.20;;
6983;SDS011;3532;51.118;7.210;2024-01-10T05:18:25;5.77;;;5.00;;
6983;SDS011;3532;51.118;7.210;2024-01-10T05:20:50;6.73;;;6.03;;
6983;SDS011;3532;51.118;7.210;2024-01-10T05:23:16;5.23;;;4.73;;
6983;SDS011;3532;51.118;7.210;2024-01-10T05:25:41;6.53;;;5.10;;
6983;SDS011;3532;51.118;7.210;2024-01-10T05:28:06;6.50;;;4.77;;
6983;SDS011;3532;51.118;7.210;2024-01-10T05:30:31;8.00;;;5.30;;
6983;SDS011;3532;51.118;7.210;2024-01-10T05:32:57;5.60;;;5.17;;
6983;SDS011;3532;51.118;7.210;2024-01-10T05:35:23;6.20;;;5.22;;
6983;SDS011;3532;51.118;7.210;2024-01-10T05:37:50;8.10;;;5.72;;
6983;SDS011;3532;51.118;7.210;2024-01-10T05:40:16;7.10;;;5.30;;
6983;SDS011;3532;51.118;7.210;2024-01-10T05:42:41;5.80;;;5.30;;
6983;SDS011;3532;51.118;7.210;2024-01-10T05:45:06;8.00;;;6.07;;
6983;SDS011;3532;51.118;7.210;2024-01-10T05:47:32;7.63;;;5.87;;
6983;SDS011;3532;51.118;7.210;2024-01-10T05:49:57;8.90;;;7.90;;
6983;SDS011;3532;51.118;7.210;2024-01-10T05:52:22;8.73;;;7.17;;
6983;SDS011;3532;51.118;7.210;2024-01-10T05:54:48;7.60;;;5.20;;
6983;SDS011;3532;51.118;7.210;2024-01-10T05:57:14;6.10;;;5.17;;
6983;SDS011;3532;51.118;7.210;2024-01-10T05:59:39;5.80;;;5.22;;
6983;SDS011;3532;51.118;7.210;2024-01-10T06:02:05;6.37;;;5.77;;
6983;SDS011;3532;51.118;7.210;2024-01-10T06:04:30;6.77;;;4.93;;
6983;SDS011;3532;51.118;7.210;2024-01-10T06:06:59;5.88;;;5.38;;
6983;SDS011;3532;51.118;7.210;2024-01-10T06:09:25;11.48;;;9.18;;
6983;SDS011;3532;51.118;7.210;2024-01-10T06:11:50;8.80;;;7.20;;
6983;SDS011;3532;51.118;7.210;2024-01-10T06:14:16;10.27;;;6.73;;
6983;SDS011;3532;51.118;7.210;2024-01-10T06:16:41;8.03;;;7.10;;
6983;SDS011;3532;51.118;7.210;2024-01-10T06:19:06;7.70;;;6.60;;
6983;SDS011;3532;51.118;7.210;2024-01-10T06:21:32;9.73;;;6.63;;
6983;SDS011;3532;51.118;7.210;2024-01-10T06:23:57;8.30;;;5.83;;
6983;SDS011;3532;51.118;7.210;2024-01-10T06:26:22;7.50;;;5.83;;
6983;SDS011;3532;51.118;7.210;2024-01-10T06:28:48;10.23;;;6.93;;
6983;SDS011;3532;51.118;7.210;2024-01-10T06:31:13;8.00;;;6.80;;
6983;SDS011;3532;51.118;7.210;2024-01-10T06:33:39;9.37;;;6.63;;
6983;SDS011;3532;51.118;7.210;2024-01-10T06:36:04;8.63;;;6.50;;
6983;SDS011;3532;51.118;7.210;2024-01-10T06:38:29;7.67;;;6.87;;
6983;SDS011;3532;51.118;7.210;2024-01-10T06:40:55;6.87;;;6.17;;
6983;SDS011;3532;51.118;7.210;2024-01-10T06:43:20;8.40;;;6.83;;
6983;SDS011;3532;51.118;7.210;2024-01-10T06:45:45;9.00;;;6.67;;
6983;SDS011;3532;51.118;7.210;2024-01-10T06:48:11;7.10;;;6.40;;
6983;SDS011;3532;51.118;7.210;2024-01-10T06:50:37;8.53;;;6.73;;
6983;SDS011;3532;51.118;7.210;2024-01-10T06:53:02;10.32;;;6.82;;
6983;SDS011;3532;51.118;7.210;2024-01-10T06:55:28;11.00;;;7.27;;
6983;SDS011;3532;51.118;7.210;2024-01-10T06:57:54;6.27;;;5.67;;
6983;SDS011;3532;51.118;7.210;2024-01-10T07:00:20;8.57;;;6.43;;
6983;SDS011;3532;51.118;7.210;2024-01-10T07:02:46;6.53;;;5.93;;
6983;SDS011;3532;51.118;7.210;2024-01-10T07:05:11;10.17;;;6.70;;
6983;SDS011;3532;51.118;7.210;2024-01-10T07:07:37;8.93;;;6.53;;
6983;SDS011;3532;51.118;7.210;2024-01-10T07:10:02;10.47;;;8.10;;
6983;SDS011;3532;51.118;7.210;2024-01-10T07:12:31;9.07;;;7.43;;
6983;SDS011;3532;51.118;7.210;2024-01-10T07:14:56;7.15;;;6.18;;
6983;SDS011;3532;51.118;7.210;2024-01-10T07:17:22;7.10;;;6.40;;
6983;SDS011;3532;51.118;7.210;2024-01-10T07:19:47;9.40;;;6.43;;
6983;SDS011;3532;51.118;7.210;2024-01-10T07:22:13;6.60;;;5.83;;
6983;SDS011;3532;51.118;7.210;2024-01-10T07:24:38;12.40;;;7.83;;
6983;SDS011;3532;51.118;7.210;2024-01-10T07:27:04;8.57;;;6.20;;
6983;SDS011;3532;51.118;7.210;2024-01-10T07:29:30;8.10;;;6.10;;
6983;SDS011;3532;51.118;7.210;2024-01-10T07:31:56;12.37;;;8.33;;
6983;SDS011;3532;51.118;7.210;2024-01-10T07:34:21;13.73;;;10.43;;
6983;SDS011;3532;51.118;7.210;2024-01-10T07:36:46;9.57;;;6.67;;
6983;SDS011;3532;51.118;7.210;2024-01-10T07:39:12;6.87;;;6.17;;
6983;SDS011;3532;51.118;7.210;2024-01-10T07:41:40;15.93;;;9.93;;
6983;SDS011;3532;51.118;7.210;2024-01-10T07:44:06;12.13;;;8.10;;
6983;SDS011;3532;51.118;7.210;2024-01-10T07:46:32;9.57;;;7.70;;
6983;SDS011;3532;51.118;7.210;2024-01-10T07:48:59;12.10;;;8.07;;
6983;SDS011;3532;51.118;7.210;2024-01-10T07:51:25;25.40;;;15.38;;
6983;SDS011;3532;51.118;7.210;2024-01-10T07:53:50;14.97;;;9.10;;
6983;SDS011;3532;51.118;7.210;2024-01-10T07:56:16;12.67;;;8.20;;
6983;SDS011;3532;51.118;7.210;2024-01-10T07:58:41;11.53;;;7.27;;
6983;SDS011;3532;51.118;7.210;2024-01-10T08:01:06;20.73;;;12.97;;
6983;SDS011;3532;51.118;7.210;2024-01-10T08:03:32;24.03;;;15.17;;
6983;SDS011;3532;51.118;7.210;2024-01-10T08:05:58;12.23;;;8.20;;
6983;SDS011;3532;51.118;7.210;2024-01-10T08:08:24;16.63;;;10.90;;
6983;SDS011;3532;51.118;7.210;2024-01-10T08:10:49;37.30;;;24.83;;
6983;SDS011;3532;51.118;7.210;2024-01-10T08:13:14;14.87;;;9.93;;
6983;SDS011;3532;51.118;7.210;2024-01-10T08:15:39;12.77;;;9.37;;
6983;SDS011;3532;51.118;7.210;2024-01-10T08:18:06;15.10;;;11.02;;
6983;SDS011;3532;51.118;7.210;2024-01-10T08:20:32;16.77;;;11.43;;
6983;SDS011;3532;51.118;7.210;2024-01-10T08:22:57;15.97;;;11.03;;
6983;SDS011;3532;51.118;7.210;2024-01-10T08:25:23;22.90;;;14.33;;
6983;SDS011;3532;51.118;7.210;2024-01-10T08:27:48;12.23;;;8.93;;
6983;SDS011;3532;51.118;7.210;2024-01-10T08:30:14;6.57;;;5.83;;
6983;SDS011;3532;51.118;7.210;2024-01-10T08:32:39;12.57;;;7.83;;
6983;SDS011;3532;51.118;7.210;2024-01-10T08:35:05;7.73;;;5.97;;
6983;SDS011;3532;51.118;7.210;2024-01-10T08:37:32;7.97;;;6.07;;
6983;SDS011;3532;51.118;7.210;2024-01-10T08:39:58;10.68;;;6.43;;
6983;SDS011;3532;51.118;7.210;2024-01-10T08:42:24;7.27;;;6.07;;
6983;SDS011;3532;51.118;7.210;2024-01-10T08:44:49;9.00;;;6.77;;
6983;SDS011;3532;51.118;7.210;2024-01-10T08:47:15;6.53;;;5.70;;
6983;SDS011;3532;51.118;7.210;2024-01-10T08:49:40;8.87;;;5.70;;
6983;SDS011;3532;51.118;7.210;2024-01-10T08:52:05;8.47;;;6.77;;
6983;SDS011;3532;51.118;7.210;2024-01-10T08:54:31;8.70;;;6.60;;
6983;SDS011;3532;51.118;7.210;2024-01-10T08:56:56;8.37;;;5.93;;
6983;SDS011;3532;51.118;7.210;2024-01-10T08:59:21;10.07;;;6.87;;
6983;SDS011;3532;51.118;7.210;2024-01-10T09:01:47;7.90;;;6.70;;
6983;SDS011;3532;51.118;7.210;2024-01-10T09:04:12;7.87;;;6.80;;
6983;SDS011;3532;51.118;7.210;2024-01-10T09:06:37;6.80;;;5.17;;
6983;SDS011;3532;51.118;7.210;2024-01-10T09:09:03;6.43;;;5.73;;
6983;SDS011;3532;51.118;7.210;2024-01-10T09:11:28;8.67;;;7.13;;
6983;SDS011;3532;51.118;7.210;2024-01-10T09:13:53;9.37;;;6.70;;
6983;SDS011;3532;51.118;7.210;2024-01-10T09:16:19;6.77;;;5.53;;
6983;SDS011;3532;51.118;7.210;2024-01-10T09:18:44;8.53;;;6.07;;
6983;SDS011;3532;51.118;7.210;2024-01-10T09:21:10;10.40;;;6.23;;
6983;SDS011;3532;51.118;7.210;2024-01-10T09:23:35;6.83;;;5.80;;
6983;SDS011;3532;51.118;7.210;2024-01-10T09:26:01;8.15;;;6.13;;
6983;SDS011;3532;51.118;7.210;2024-01-10T09:28:27;7.40;;;5.90;;
6983;SDS011;3532;51.118;7.210;2024-01-10T09:30:52;11.60;;;7.20;;
6983;SDS011;3532;51.118;7.210;2024-01-10T09:33:19;7.65;;;6.28;;
6983;SDS011;3532;51.118;7.210;2024-01-10T09:35:44;6.90;;;5.50;;
6983;SDS011;3532;51.118;7.210;2024-01-10T09:38:09;8.97;;;6.87;;
6983;SDS011;3532;51.118;7.210;2024-01-10T09:40:35;6.63;;;5.78;;
6983;SDS011;3532;51.118;7.210;2024-01-10T09:43:01;7.90;;;5.70;;
6983;SDS011;3532;51.118;7.210;2024-01-10T09:45:26;10.67;;;7.47;;
6983;SDS011;3532;51.118;7.210;2024-01-10T09:47:56;8.10;;;6.22;;
6983;SDS011;3532;51.118;7.210;2024-01-10T09:50:22;9.95;;;6.95;;
6983;SDS011;3532;51.118;7.210;2024-01-10T09:52:52;8.40;;;6.30;;
6983;SDS011;3532;51.118;7.210;2024-01-10T09:55:22;9.57;;;7.13;;
6983;SDS011;3532;51.118;7.210;2024-01-10T09:57:51;7.32;;;6.15;;
6983;SDS011;3532;51.118;7.210;2024-01-10T10:00:16;8.87;;;7.50;;
6983;SDS011;3532;51.118;7.210;2024-01-10T10:02:42;6.80;;;5.60;;
6983;SDS011;3532;51.118;7.210;2024-01-10T10:05:14;8.80;;;6.57;;
6983;SDS011;3532;51.118;7.210;2024-01-10T10:07:44;8.18;;;6.82;;
6983;SDS011;3532;51.118;7.210;2024-01-10T10:10:10;7.07;;;5.97;;
6983;SDS011;3532;51.118;7.210;2024-01-10T10:12:47;10.00;;;7.68;;
6983;SDS011;3532;51.118;7.210;2024-01-10T10:15:14;7.80;;;6.63;;
6983;SDS011;3532;51.118;7.210;2024-01-10T10:17:44;7.88;;;6.70;;
6983;SDS011;3532;51.118;7.210;2024-01-10T10:20:20;9.65;;;7.18;;
6983;SDS011;3532;51.118;7.210;2024-01-10T10:22:59;8.10;;;6.78;;
6983;SDS011;3532;51.118;7.210;2024-01-10T10:25:29;9.30;;;6.72;;
6983;SDS011;3532;51.118;7.210;2024-01-10T10:27:58;9.75;;;7.00;;
6983;SDS011;3532;51.118;7.210;2024-01-10T10:30:25;9.95;;;7.10;;
6983;SDS011;3532;51.118;7.210;2024-01-10T10:32:50;8.60;;;6.77;;
6983;SDS011;3532;51.118;7.210;2024-01-10T10:35:17;7.83;;;6.13;;
6983;SDS011;3532;51.118;7.210;2024-01-10T10:37:43;10.52;;;8.02;;
6983;SDS011;3532;51.118;7.210;2024-01-10T10:40:09;8.93;;;7.30;;
6983;SDS011;3532;51.118;7.210;2024-01-10T10:42:34;11.30;;;7.40;;
6983;SDS011;3532;51.118;7.210;2024-01-10T10:45:03;7.85;;;6.55;;
6983;SDS011;3532;51.118;7.210;2024-01-10T10:47:34;8.40;;;7.07;;
6983;SDS011;3532;51.118;7.210;2024-01-10T10:50:01;8.63;;;7.07;;
6983;SDS011;3532;51.118;7.210;2024-01-10T10:52:28;9.82;;;7.45;;
6983;SDS011;3532;51.118;7.210;2024-01-10T10:54:54;10.07;;;7.00;;
6983;SDS011;3532;51.118;7.210;2024-01-10T10:57:22;11.02;;;7.25;;
6983;SDS011;3532;51.118;7.210;2024-01-10T10:59:47;8.43;;;6.70;;
6983;SDS011;3532;51.118;7.210;2024-01-10T11:02:15;10.20;;;7.47;;
6983;SDS011;3532;51.118;7.210;2024-01-10T11:04:52;9.98;;;7.30;;
6983;SDS011;3532;51.118;7.210;2024-01-10T11:07:19;11.25;;;7.60;;
6983;SDS011;3532;51.118;7.210;2024-01-10T11:09:45;11.07;;;7.53;;
6983;SDS011;3532;51.118;7.210;2024-01-10T11:12:15;12.65;;;7.10;;
6983;SDS011;3532;51.118;7.210;2024-01-10T11:14:57;9.32;;;6.80;;
6983;SDS011;3532;51.118;7.210;2024-01-10T11:26:02;11.25;;;7.60;;
6983;SDS011;3532;51.118;7.210;2024-01-10T11:28:30;9.30;;;7.50;;
6983;SDS011;3532;51.118;7.210;2024-01-10T11:30:56;11.27;;;7.80;;
6983;SDS011;3532;51.118;7.210;2024-01-10T11:33:31;10.17;;;7.47;;
6983;SDS011;3532;51.118;7.210;2024-01-10T11:38:43;11.75;;;8.55;;
6983;SDS011;3532;51.118;7.210;2024-01-10T11:41:36;10.55;;;8.00;;
6983;SDS011;3532;51.118;7.210;2024-01-10T11:46:33;9.23;;;7.80;;
6983;SDS011;3532;51.118;7.210;2024-01-10T11:48:59;10.15;;;7.70;;
6983;SDS011;3532;51.118;7.210;2024-01-10T11:51:25;11.87;;;8.47;;
6983;SDS011;3532;51.118;7.210;2024-01-10T11:53:50;13.57;;;9.40;;
6983;SDS011;3532;51.118;7.210;2024-01-10T11:56:18;13.43;;;8.25;;
6983;SDS011;3532;51.118;7.210;2024-01-10T11:59:02;12.80;;;8.40;;
6983;SDS011;3532;51.118;7.210;2024-01-10T12:01:30;10.45;;;7.70;;
6983;SDS011;3532;51.118;7.210;2024-01-10T12:03:56;12.07;;;8.73;;
6983;SDS011;3532;51.118;7.210;2024-01-10T12:06:22;13.90;;;8.45;;
6983;SDS011;3532;51.118;7.210;2024-01-10T12:08:50;11.63;;;7.82;;
6983;SDS011;3532;51.118;7.210;2024-01-10T12:11:15;12.87;;;9.33;;
6983;SDS011;3532;51.118;7.210;2024-01-10T12:13:41;12.17;;;8.70;;
6983;SDS011;3532;51.118;7.210;2024-01-10T12:16:07;12.37;;;8.00;;
6983;SDS011;3532;51.118;7.210;2024-01-10T12:18:32;12.73;;;7.77;;
6983;SDS011;3532;51.118;7.210;2024-01-10T12:20:57;12.27;;;8.60;;
6983;SDS011;3532;51.118;7.210;2024-01-10T12:23:23;10.77;;;7.43;;
6983;SDS011;3532;51.118;7.210;2024-01-10T12:25:48;11.13;;;8.37;;
6983;SDS011;3532;51.118;7.210;2024-01-10T12:28:17;11.00;;;8.23;;
6983;SDS011;3532;51.118;7.210;2024-01-10T12:30:42;15.48;;;8.55;;
6983;SDS011;3532;51.118;7.210;2024-01-10T12:33:10;13.13;;;9.70;;
6983;SDS011;3532;51.118;7.210;2024-01-10T12:35:36;14.43;;;9.07;;
6983;SDS011;3532;51.118;7.210;2024-01-10T12:38:06;11.90;;;8.38;;
6983;SDS011;3532;51.118;7.210;2024-01-10T12:40:31;12.63;;;8.70;;
6983;SDS011;3532;51.118;7.210;2024-01-10T12:43:03;15.07;;;8.77;;
6983;SDS011;3532;51.118;7.210;2024-01-10T12:45:29;14.15;;;9.70;;
6983;SDS011;3532;51.118;7.210;2024-01-10T12:47:54;13.93;;;8.67;;
6983;SDS011;3532;51.118;7.210;2024-01-10T12:50:20;13.80;;;8.83;;
6983;SDS011;3532;51.118;7.210;2024-01-10T12:52:45;15.87;;;9.87;;
6983;SDS011;3532;51.118;7.210;2024-01-10T12:55:11;14.38;;;8.63;;
6983;SDS011;3532;51.118;7.210;2024-01-10T12:57:37;14.33;;;8.33;;
6983;SDS011;3532;51.118;7.210;2024-01-10T13:00:03;11.60;;;9.27;;
6983;SDS011;3532;51.118;7.210;2024-01-10T13:02:31;10.70;;;8.25;;
6983;SDS011;3532;51.118;7.210;2024-01-10T13:05:02;10.27;;;8.15;;
6983;SDS011;3532;51.118;7.210;2024-01-10T13:07:28;14.48;;;9.02;;
6983;SDS011;3532;51.118;7.210;2024-01-10T13:09:56;13.98;;;8.68;;
6983;SDS011;3532;51.118;7.210;2024-01-10T13:12:21;14.27;;;9.53;;
6983;SDS011;3532;51.118;7.210;2024-01-10T13:14:46;15.27;;;9.27;;
6983;SDS011;3532;51.118;7.210;2024-01-10T13:17:12;15.63;;;9.63;;
6983;SDS011;3532;51.118;7.210;2024-01-10T13:19:37;15.03;;;9.77;;
6983;SDS011;3532;51.118;7.210;2024-01-10T13:22:02;15.20;;;10.07;;
6983;SDS011;3532;51.118;7.210;2024-01-10T13:24:28;13.20;;;9.60;;
6983;SDS011;3532;51.118;7.210;2024-01-10T13:26:54;12.53;;;8.90;;
6983;SDS011;3532;51.118;7.210;2024-01-10T13:29:20;14.23;;;8.50;;
6983;SDS011;3532;51.118;7.210;2024-01-10T13:31:45;16.07;;;9.50;;
6983;SDS011;3532;51.118;7.210;2024-01-10T13:34:12;13.38;;;8.95;;
6983;SDS011;3532;51.118;7.210;2024-01-10T13:36:37;16.27;;;9.07;;
6983;SDS011;3532;51.118;7.210;2024-01-10T13:39:03;11.20;;;9.33;;
6983;SDS011;3532;51.118;7.210;2024-01-10T13:41:28;13.07;;;9.73;;
6983;SDS011;3532;51.118;7.210;2024-01-10T13:43:54;11.77;;;9.27;;
6983;SDS011;3532;51.118;7.210;2024-01-10T13:46:19;13.07;;;9.40;;
6983;SDS011;3532;51.118;7.210;2024-01-10T13:48:44;8.80;;;7.90;;
6983;SDS011;3532;51.118;7.210;2024-01-10T13:51:10;11.83;;;9.30;;
6983;SDS011;3532;51.118;7.210;2024-01-10T13:53:35;13.73;;;9.07;;
6983;SDS011;3532;51.118;7.210;2024-01-10T13:56:01;13.87;;;9.03;;
6983;SDS011;3532;51.118;7.210;2024-01-10T13:58:26;13.40;;;9.27;;
6983;SDS011;3532;51.118;7.210;2024-01-10T14:00:51;14.07;;;9.53;;
6983;SDS011;3532;51.118;7.210;2024-01-10T14:03:17;11.73;;;8.77;;
6983;SDS011;3532;51.118;7.210;2024-01-10T14:05:42;12.60;;;9.47;;
6983;SDS011;3532;51.118;7.210;2024-01-10T14:08:08;13.47;;;9.73;;
6983;SDS011;3532;51.118;7.210;2024-01-10T14:10:36;14.13;;;9.38;;
6983;SDS011;3532;51.118;7.210;2024-01-10T14:13:01;12.97;;;9.27;;
6983;SDS011;3532;51.118;7.210;2024-01-10T14:15:28;16.65;;;10.07;;
6983;SDS011;3532;51.118;7.210;2024-01-10T14:17:54;13.88;;;9.05;;
6983;SDS011;3532;51.118;7.210;2024-01-10T14:20:19;10.90;;;8.60;;
6983;SDS011;3532;51.118;7.210;2024-01-10T14:22:46;15.18;;;9.98;;
6983;SDS011;3532;51.118;7.210;2024-01-10T14:25:11;9.87;;;8.30;;
6983;SDS011;3532;51.118;7.210;2024-01-10T14:27:37;14.50;;;9.07;;
6983;SDS011;3532;51.118;7.210;2024-01-10T14:30:03;15.57;;;8.93;;
6983;SDS011;3532;51.118;7.210;2024-01-10T14:32:29;11.75;;;9.45;;
6983;SDS011;3532;51.118;7.210;2024-01-10T14:34:58;11.60;;;8.27;;
6983;SDS011;3532;51.118;7.210;2024-01-10T14:37:24;14.10;;;9.52;;
6983;SDS011;3532;51.118;7.210;2024-01-10T14:39:49;15.90;;;9.23;;
6983;SDS011;3532;51.118;7.210;2024-01-10T14:42:16;15.02;;;9.82;;
6983;SDS011;3532;51.118;7.210;2024-01-10T14:44:42;16.45;;;10.07;;
6983;SDS011;3532;51.118;7.210;2024-01-10T14:47:07;13.70;;;9.90;;
6983;SDS011;3532;51.118;7.210;2024-01-10T14:49:33;11.37;;;9.37;;
6983;SDS011;3532;51.118;7.210;2024-01-10T14:51:58;14.67;;;9.50;;
6983;SDS011;3532;51.118;7.210;2024-01-10T14:54:23;14.90;;;9.60;;
6983;SDS011;3532;51.118;7.210;2024-01-10T14:56:49;22.50;;;14.20;;
6983;SDS011;3532;51.118;7.210;2024-01-10T14:59:14;24.47;;;15.07;;
6983;SDS011;3532;51.118;7.210;2024-01-10T15:01:47;28.27;;;16.20;;
6983;SDS011;3532;51.118;7.210;2024-01-10T15:04:12;21.52;;;13.98;;
6983;SDS011;3532;51.118;7.210;2024-01-10T15:06:44;23.70;;;14.53;;
6983;SDS011;3532;51.118;7.210;2024-01-10T15:09:10;20.90;;;13.70;;
6983;SDS011;3532;51.118;7.210;2024-01-10T15:11:37;13.10;;;9.53;;
6983;SDS011;3532;51.118;7.210;2024-01-10T15:14:03;13.48;;;9.60;;
6983;SDS011;3532;51.118;7.210;2024-01-10T15:16:29;13.07;;;8.93;;